Time;durP1;ratioP1;P1;durP2;ratioP2;P2;SDS_P1;SDS_P2;PMS_P1;PMS_P2;Temp;Humidity;BMP_temperature;BMP_pressure;BME280_temperature;BME280_humidity;BME280_pressure;Samples;Min_cycle;Max_cycle;Signal;HPM_P1;HPM_P2
2023/04/05 00:02:23;;;;;;;8.82;6.85;;;;;;;;;;4978628;28;20053;-76
2023/04/05 00:04:53;;;;;;;10.57;6.43;;;;;;;;;;4994853;28;20042;-76
2023/04/05 00:07:20;;;;;;;11.80;6.40;;;;;;;;;;5011204;28;20133;-76
2023/04/05 00:09:48;;;;;;;7.85;6.10;;;;;;;;;;5006873;28;20053;-76
2023/04/05 00:12:15;;;;;;;7.65;6.00;;;;;;;;;;4990980;28;20133;-76
2023/04/05 00:14:41;;;;;;;12.52;6.60;;;;;;;;;;5026551;28;20120;-76
2023/04/05 00:17:08;;;;;;;7.13;5.80;;;;;;;;;;5027137;28;20046;-76
2023/04/05 00:19:38;;;;;;;10.07;6.40;;;;;;;;;;5027904;28;20441;-76
2023/04/05 00:22:05;;;;;;;8.70;6.07;;;;;;;;;;5011301;28;20399;-76
2023/04/05 00:24:32;;;;;;;10.15;6.95;;;;;;;;;;5018793;28;20057;-77
2023/04/05 00:27:00;;;;;;;9.98;6.40;;;;;;;;;;5035039;28;20054;-77
2023/04/05 00:29:27;;;;;;;10.48;6.15;;;;;;;;;;5002904;28;20053;-77
2023/04/05 00:31:54;;;;;;;9.27;7.03;;;;;;;;;;4983101;28;20058;-77
2023/04/05 00:34:21;;;;;;;12.55;7.30;;;;;;;;;;5002670;28;20054;-77
2023/04/05 00:36:48;;;;;;;11.00;7.40;;;;;;;;;;5018004;28;20049;-78
2023/04/05 00:39:15;;;;;;;10.77;6.97;;;;;;;;;;5038316;28;20099;-78
2023/04/05 00:41:43;;;;;;;11.45;8.38;;;;;;;;;;5006806;28;20084;-78
2023/04/05 00:44:13;;;;;;;13.25;7.55;;;;;;;;;;5025340;28;20061;-77
2023/04/05 00:46:40;;;;;;;11.32;8.05;;;;;;;;;;5027117;28;20100;-78
2023/04/05 00:49:08;;;;;;;10.48;7.80;;;;;;;;;;5043248;28;20081;-78
2023/04/05 00:51:35;;;;;;;10.80;6.90;;;;;;;;;;5043139;28;20065;-78
2023/04/05 00:54:02;;;;;;;12.07;7.43;;;;;;;;;;5016144;28;20049;-78
2023/04/05 00:56:29;;;;;;;10.50;6.88;;;;;;;;;;5009358;28;20086;-77
2023/04/05 00:58:56;;;;;;;10.60;8.20;;;;;;;;;;5043320;28;20077;-79
2023/04/05 01:01:25;;;;;;;8.95;6.60;;;;;;;;;;5025756;28;20461;-78
2023/04/05 01:03:53;;;;;;;8.05;6.35;;;;;;;;;;5032039;28;20046;-78
2023/04/05 01:06:22;;;;;;;9.80;6.75;;;;;;;;;;5009501;28;20050;-78
2023/04/05 01:09:07;;;;;;;10.50;6.30;;;;;;;;;;5006071;28;20068;-78
2023/04/05 01:11:34;;;;;;;9.60;6.70;;;;;;;;;;5019085;28;20065;-76
2023/04/05 01:14:01;;;;;;;10.65;6.40;;;;;;;;;;5003324;28;20046;-77
2023/04/05 01:16:28;;;;;;;9.60;6.80;;;;;;;;;;5001444;28;20502;-77
2023/04/05 01:18:57;;;;;;;8.82;6.15;;;;;;;;;;5002288;28;20050;-77
2023/04/05 01:21:36;;;;;;;7.65;5.93;;;;;;;;;;4993084;28;20050;-79
2023/04/05 01:24:21;;;;;;;10.60;6.55;;;;;;;;;;5032865;28;20055;-79
2023/04/05 01:26:51;;;;;;;9.60;6.15;;;;;;;;;;5024083;28;20045;-79
2023/04/05 01:29:25;;;;;;;7.93;6.82;;;;;;;;;;5029884;28;20054;-77
2023/04/05 01:32:02;;;;;;;13.32;7.00;;;;;;;;;;5003466;28;20395;-76
2023/04/05 01:34:35;;;;;;;8.27;6.25;;;;;;;;;;5004544;28;20065;-74
2023/04/05 01:37:07;;;;;;;8.52;5.53;;;;;;;;;;5006708;28;20057;-77
2023/04/05 01:39:35;;;;;;;8.77;6.22;;;;;;;;;;4984280;28;20069;-77
2023/04/05 01:42:02;;;;;;;9.52;5.93;;;;;;;;;;4986548;28;20050;-76
2023/04/05 01:44:29;;;;;;;8.57;5.97;;;;;;;;;;5010932;28;20060;-76
2023/04/05 01:46:56;;;;;;;8.00;5.80;;;;;;;;;;4993284;28;20552;-76
2023/04/05 01:49:23;;;;;;;8.98;5.57;;;;;;;;;;5009414;28;20054;-77
2023/04/05 01:51:50;;;;;;;8.10;5.40;;;;;;;;;;5005649;28;20050;-77
2023/04/05 01:54:16;;;;;;;7.90;5.45;;;;;;;;;;4990798;28;20134;-77
2023/04/05 01:56:43;;;;;;;7.25;5.50;;;;;;;;;;4988432;28;20043;-76
2023/04/05 01:59:10;;;;;;;8.98;5.70;;;;;;;;;;5000130;28;20104;-77
2023/04/05 02:01:37;;;;;;;7.85;5.63;;;;;;;;;;5009526;28;20053;-77
2023/04/05 02:04:03;;;;;;;10.75;5.95;;;;;;;;;;5012800;28;20057;-77
2023/04/05 02:06:31;;;;;;;5.88;4.85;;;;;;;;;;4998117;28;20552;-76
2023/04/05 02:08:57;;;;;;;9.00;5.30;;;;;;;;;;4994306;28;20128;-77
2023/04/05 02:11:24;;;;;;;10.55;5.90;;;;;;;;;;5012860;28;20056;-76
2023/04/05 02:13:51;;;;;;;6.15;5.15;;;;;;;;;;4980355;28;20065;-76
2023/04/05 02:16:18;;;;;;;8.38;5.93;;;;;;;;;;5027098;28;20060;-77
2023/04/05 02:18:49;;;;;;;8.85;5.50;;;;;;;;;;5011415;28;20053;-76
2023/04/05 02:21:16;;;;;;;8.18;5.60;;;;;;;;;;4981434;28;20042;-76
2023/04/05 02:23:43;;;;;;;11.98;5.43;;;;;;;;;;5029034;28;20045;-75
2023/04/05 02:26:10;;;;;;;9.38;4.95;;;;;;;;;;5012248;28;20049;-76
2023/04/05 02:28:36;;;;;;;8.90;6.30;;;;;;;;;;5009218;28;20050;-76
2023/04/05 02:31:09;;;;;;;11.68;5.68;;;;;;;;;;5001728;28;20042;-75
2023/04/05 02:33:35;;;;;;;7.07;5.47;;;;;;;;;;4996577;28;20169;-76
2023/04/05 02:36:08;;;;;;;9.82;5.53;;;;;;;;;;5012283;28;20289;-76
2023/04/05 02:38:35;;;;;;;8.65;5.55;;;;;;;;;;5012065;28;20136;-76
2023/04/05 02:41:02;;;;;;;6.78;5.05;;;;;;;;;;4996817;28;20054;-76
2023/04/05 02:43:28;;;;;;;7.53;5.90;;;;;;;;;;5012107;28;20050;-77
2023/04/05 02:45:55;;;;;;;9.10;6.15;;;;;;;;;;4996227;28;20073;-77
2023/04/05 02:48:22;;;;;;;9.75;6.47;;;;;;;;;;5016924;28;20077;-76
2023/04/05 02:50:49;;;;;;;8.05;5.75;;;;;;;;;;5012076;28;20054;-77
2023/04/05 02:53:17;;;;;;;8.85;5.65;;;;;;;;;;5030398;28;20521;-77
2023/04/05 02:55:52;;;;;;;7.53;6.03;;;;;;;;;;4996823;28;20125;-76
2023/04/05 02:58:19;;;;;;;9.68;6.18;;;;;;;;;;5022472;28;20053;-77
2023/04/05 03:00:49;;;;;;;7.07;5.65;;;;;;;;;;5017643;28;20045;-77
2023/04/05 03:03:17;;;;;;;8.23;5.70;;;;;;;;;;5032222;28;20053;-77
2023/04/05 03:05:45;;;;;;;9.75;6.25;;;;;;;;;;4980868;28;20050;-77
2023/04/05 03:08:18;;;;;;;12.25;6.88;;;;;;;;;;5018524;28;20074;-77
2023/04/05 03:10:45;;;;;;;12.65;7.15;;;;;;;;;;5016016;28;20046;-76
2023/04/05 03:13:13;;;;;;;12.90;6.65;;;;;;;;;;4963353;28;20423;-76
2023/04/05 03:15:41;;;;;;;7.40;6.05;;;;;;;;;;4996974;28;20522;-76
2023/04/05 03:18:11;;;;;;;10.13;6.60;;;;;;;;;;4995493;28;20510;-77
2023/04/05 03:20:39;;;;;;;8.30;5.97;;;;;;;;;;5012174;28;20057;-77
2023/04/05 03:23:07;;;;;;;8.43;5.70;;;;;;;;;;5011853;28;20128;-77
2023/04/05 03:25:35;;;;;;;9.10;6.20;;;;;;;;;;5017456;28;20077;-76
2023/04/05 03:28:07;;;;;;;9.95;6.00;;;;;;;;;;5008980;28;20054;-77
2023/04/05 03:30:34;;;;;;;7.90;6.15;;;;;;;;;;4996414;28;20057;-76
2023/04/05 03:33:01;;;;;;;11.38;6.15;;;;;;;;;;4995946;28;20049;-77
2023/04/05 03:35:29;;;;;;;9.10;6.03;;;;;;;;;;5012058;28;20042;-77
2023/04/05 03:37:56;;;;;;;8.27;6.28;;;;;;;;;;5011287;28;20055;-77
2023/04/05 03:40:23;;;;;;;8.23;6.25;;;;;;;;;;5011544;28;20117;-76
2023/04/05 03:42:50;;;;;;;9.63;6.70;;;;;;;;;;4994692;28;20429;-77
2023/04/05 03:45:17;;;;;;;8.10;5.82;;;;;;;;;;5011093;28;20057;-77
2023/04/05 03:47:49;;;;;;;8.57;5.90;;;;;;;;;;4991864;28;20058;-77
2023/04/05 03:50:16;;;;;;;10.38;5.93;;;;;;;;;;4987200;28;20116;-77
2023/04/05 03:52:43;;;;;;;7.82;6.35;;;;;;;;;;5011006;28;20056;-76
2023/04/05 03:55:12;;;;;;;9.27;6.47;;;;;;;;;;4991111;28;20046;-77
2023/04/05 03:57:39;;;;;;;11.40;6.90;;;;;;;;;;5005539;28;20077;-77
2023/04/05 04:00:13;;;;;;;10.07;6.10;;;;;;;;;;4994372;28;20046;-77
2023/04/05 04:02:45;;;;;;;12.18;6.88;;;;;;;;;;4995317;28;20067;-77
2023/04/05 04:05:12;;;;;;;9.98;6.85;;;;;;;;;;4991567;28;20046;-77
2023/04/05 04:07:43;;;;;;;9.90;7.15;;;;;;;;;;4978404;28;20056;-76
2023/04/05 04:10:11;;;;;;;11.43;6.50;;;;;;;;;;5001315;28;20457;-77
2023/04/05 04:12:38;;;;;;;8.13;5.90;;;;;;;;;;5006622;28;20134;-77
2023/04/05 04:15:05;;;;;;;9.77;6.72;;;;;;;;;;4975276;28;20054;-77
2023/04/05 04:17:34;;;;;;;10.48;6.63;;;;;;;;;;5006129;28;20048;-74
2023/04/05 04:20:07;;;;;;;10.68;6.65;;;;;;;;;;5027137;28;20052;-70
2023/04/05 04:22:37;;;;;;;8.93;6.85;;;;;;;;;;5015405;28;20060;-71
2023/04/05 04:25:08;;;;;;;8.88;6.78;;;;;;;;;;5011182;28;20053;-76
2023/04/05 04:27:41;;;;;;;12.43;6.85;;;;;;;;;;4995127;28;20050;-80
2023/04/05 04:30:09;;;;;;;12.75;7.38;;;;;;;;;;5010899;28;20467;-79
2023/04/05 04:32:53;;;;;;;11.35;6.68;;;;;;;;;;5009513;28;20507;-79
2023/04/05 04:35:25;;;;;;;11.25;6.90;;;;;;;;;;5007647;28;20057;-78
2023/04/05 04:37:59;;;;;;;13.52;7.22;;;;;;;;;;5010131;28;20494;-79
2023/04/05 04:40:40;;;;;;;9.93;6.75;;;;;;;;;;5014215;28;20442;-78
2023/04/05 04:43:17;;;;;;;12.88;7.32;;;;;;;;;;5016850;28;20041;-79
2023/04/05 04:45:48;;;;;;;8.98;6.72;;;;;;;;;;5033350;28;20438;-77
2023/04/05 04:48:15;;;;;;;8.43;6.47;;;;;;;;;;5015906;28;20049;-79
2023/04/05 04:50:45;;;;;;;9.48;6.57;;;;;;;;;;5014549;28;20049;-79
2023/04/05 04:53:18;;;;;;;9.20;6.38;;;;;;;;;;5031010;28;20153;-78
2023/04/05 04:55:49;;;;;;;7.97;6.25;;;;;;;;;;5032979;28;20050;-78
2023/04/05 04:58:16;;;;;;;10.77;6.05;;;;;;;;;;5032402;28;20049;-78
2023/04/05 05:00:43;;;;;;;8.52;6.70;;;;;;;;;;5032044;28;20049;-78
2023/04/05 05:03:10;;;;;;;11.55;6.72;;;;;;;;;;5034068;28;20049;-78
2023/04/05 05:05:45;;;;;;;13.73;7.55;;;;;;;;;;5033049;28;20054;-79
2023/04/05 05:08:12;;;;;;;9.45;6.57;;;;;;;;;;5031924;28;20049;-78
2023/04/05 05:10:39;;;;;;;11.48;7.43;;;;;;;;;;5014849;28;20089;-78
2023/04/05 05:13:07;;;;;;;10.93;7.05;;;;;;;;;;5015162;28;20517;-79
2023/04/05 05:15:34;;;;;;;9.45;7.13;;;;;;;;;;5015011;28;20053;-78
2023/04/05 05:18:02;;;;;;;14.70;7.57;;;;;;;;;;4996228;28;20363;-79
2023/04/05 05:20:29;;;;;;;10.18;6.65;;;;;;;;;;4995177;28;20049;-78
2023/04/05 05:22:55;;;;;;;10.23;6.93;;;;;;;;;;5011133;28;20057;-78
2023/04/05 05:25:22;;;;;;;10.95;7.05;;;;;;;;;;4994641;28;20490;-78
2023/04/05 05:27:49;;;;;;;14.10;7.13;;;;;;;;;;4994509;28;20053;-78
2023/04/05 05:30:17;;;;;;;10.50;7.28;;;;;;;;;;4991240;28;20050;-77
2023/04/05 05:32:44;;;;;;;11.27;7.75;;;;;;;;;;4974926;28;20142;-74
2023/04/05 05:35:11;;;;;;;10.68;7.28;;;;;;;;;;4973582;28;20461;-74
2023/04/05 05:37:38;;;;;;;12.02;7.80;;;;;;;;;;4989696;28;20161;-74
2023/04/05 05:40:08;;;;;;;10.82;7.93;;;;;;;;;;4974021;28;20046;-75
2023/04/05 05:42:35;;;;;;;10.05;7.07;;;;;;;;;;5005894;28;20054;-77
2023/04/05 05:45:03;;;;;;;17.13;8.40;;;;;;;;;;5008895;28;20494;-77
2023/04/05 05:47:30;;;;;;;14.30;8.48;;;;;;;;;;4994010;28;20465;-78
2023/04/05 05:49:57;;;;;;;13.27;8.77;;;;;;;;;;4996740;28;20054;-78
2023/04/05 05:52:24;;;;;;;12.95;8.10;;;;;;;;;;5029764;28;20141;-77
2023/04/05 05:54:51;;;;;;;12.90;8.07;;;;;;;;;;5013186;28;20058;-77
2023/04/05 05:57:18;;;;;;;12.50;8.23;;;;;;;;;;5028920;28;20058;-77
2023/04/05 05:59:45;;;;;;;11.93;8.52;;;;;;;;;;5012674;28;20486;-75
2023/04/05 06:02:12;;;;;;;13.73;7.82;;;;;;;;;;4996490;28;20061;-77
2023/04/05 06:04:39;;;;;;;10.88;7.43;;;;;;;;;;5028939;28;20046;-77
2023/04/05 06:07:06;;;;;;;12.52;8.65;;;;;;;;;;5028938;28;20056;-78
2023/04/05 06:09:34;;;;;;;15.07;8.27;;;;;;;;;;5012873;28;20524;-77
2023/04/05 06:12:01;;;;;;;12.18;8.10;;;;;;;;;;5009772;28;20070;-78
2023/04/05 06:14:30;;;;;;;10.50;7.75;;;;;;;;;;4996622;28;20060;-78
2023/04/05 06:16:57;;;;;;;15.98;7.65;;;;;;;;;;5029620;28;20100;-78
2023/04/05 06:19:24;;;;;;;12.52;8.20;;;;;;;;;;5028396;28;20673;-72
2023/04/05 06:21:51;;;;;;;12.90;7.68;;;;;;;;;;5011389;28;20056;-77
2023/04/05 06:24:17;;;;;;;12.13;7.93;;;;;;;;;;5009599;28;20064;-79
2023/04/05 06:26:44;;;;;;;11.40;7.57;;;;;;;;;;5014724;28;20053;-78
2023/04/05 06:29:11;;;;;;;16.50;8.13;;;;;;;;;;4995581;28;20049;-76
2023/04/05 06:31:40;;;;;;;10.65;7.35;;;;;;;;;;4995438;28;20053;-77
2023/04/05 06:34:07;;;;;;;10.05;7.45;;;;;;;;;;4980013;28;20057;-77
2023/04/05 06:36:33;;;;;;;10.88;7.35;;;;;;;;;;4992143;28;20050;-77
2023/04/05 06:39:00;;;;;;;9.07;7.28;;;;;;;;;;5008424;28;20598;-77
2023/04/05 06:41:27;;;;;;;11.20;7.03;;;;;;;;;;5010647;28;20136;-77
2023/04/05 06:43:55;;;;;;;10.77;7.13;;;;;;;;;;5004151;28;20050;-78
2023/04/05 06:46:22;;;;;;;12.77;7.57;;;;;;;;;;4989765;28;20046;-75
2023/04/05 06:48:50;;;;;;;13.82;7.40;;;;;;;;;;4999834;28;20141;-75
2023/04/05 06:51:17;;;;;;;12.73;8.35;;;;;;;;;;5001868;28;20069;-75
2023/04/05 06:53:44;;;;;;;11.70;6.93;;;;;;;;;;5002020;28;20136;-75
2023/04/05 06:56:11;;;;;;;17.42;7.18;;;;;;;;;;4975660;28;20518;-75
2023/04/05 06:58:38;;;;;;;13.05;7.22;;;;;;;;;;4976396;28;20096;-75
2023/04/05 07:01:05;;;;;;;10.38;7.55;;;;;;;;;;4973608;28;20442;-75
2023/04/05 07:03:32;;;;;;;8.80;7.47;;;;;;;;;;5011772;28;20054;-75
2023/04/05 07:06:00;;;;;;;11.38;7.47;;;;;;;;;;4979956;28;20061;-75
2023/04/05 07:08:28;;;;;;;10.57;7.35;;;;;;;;;;4979555;28;20485;-75
2023/04/05 07:10:55;;;;;;;10.70;6.85;;;;;;;;;;4991730;28;20054;-75
2023/04/05 07:13:23;;;;;;;9.32;7.72;;;;;;;;;;4976084;28;20051;-74
2023/04/05 07:15:50;;;;;;;10.25;6.70;;;;;;;;;;4975961;28;20491;-75
2023/04/05 07:18:18;;;;;;;10.65;7.28;;;;;;;;;;4975783;28;20502;-75
2023/04/05 07:20:46;;;;;;;8.35;6.28;;;;;;;;;;4986240;28;20506;-75
2023/04/05 07:23:13;;;;;;;10.13;6.80;;;;;;;;;;4995222;28;20046;-75
2023/04/05 07:25:40;;;;;;;9.43;6.50;;;;;;;;;;5011473;28;20512;-75
2023/04/05 07:28:07;;;;;;;8.15;5.63;;;;;;;;;;5011428;28;20078;-75
2023/04/05 07:30:35;;;;;;;13.32;5.82;;;;;;;;;;5027155;28;20056;-75
2023/04/05 07:33:02;;;;;;;7.80;5.85;;;;;;;;;;5007820;28;20529;-75
2023/04/05 07:35:29;;;;;;;7.68;5.60;;;;;;;;;;4991931;28;20051;-75
2023/04/05 07:37:56;;;;;;;8.77;6.10;;;;;;;;;;4991773;28;20046;-75
2023/04/05 07:40:23;;;;;;;8.55;5.53;;;;;;;;;;4998684;28;20417;-75
2023/04/05 07:42:49;;;;;;;9.63;5.18;;;;;;;;;;5011007;28;20096;-75
2023/04/05 07:45:16;;;;;;;8.82;6.15;;;;;;;;;;5011050;28;20054;-75
2023/04/05 07:47:43;;;;;;;7.57;5.78;;;;;;;;;;5027267;28;20057;-76
2023/04/05 07:50:13;;;;;;;7.35;4.72;;;;;;;;;;5022023;28;20054;-76
2023/04/05 07:52:41;;;;;;;9.23;5.82;;;;;;;;;;4991420;28;20108;-74
2023/04/05 07:55:08;;;;;;;9.68;5.20;;;;;;;;;;4991304;28;20066;-75
2023/04/05 07:57:36;;;;;;;7.28;5.65;;;;;;;;;;5007292;28;20057;-74
2023/04/05 08:00:06;;;;;;;10.10;6.30;;;;;;;;;;4995232;28;20045;-74
2023/04/05 08:02:33;;;;;;;8.02;6.10;;;;;;;;;;4994758;28;20068;-75
2023/04/05 08:04:59;;;;;;;10.77;6.22;;;;;;;;;;4994402;28;20094;-77
2023/04/05 08:07:26;;;;;;;7.80;5.55;;;;;;;;;;5009682;28;20597;-78
2023/04/05 08:09:56;;;;;;;7.88;5.80;;;;;;;;;;5026470;28;20061;-79
2023/04/05 08:12:23;;;;;;;8.35;5.05;;;;;;;;;;5010599;28;20137;-78
2023/04/05 08:14:50;;;;;;;15.25;5.47;;;;;;;;;;5010669;28;20425;-78
2023/04/05 08:17:16;;;;;;;6.68;4.93;;;;;;;;;;5010679;28;20050;-78
2023/04/05 08:19:43;;;;;;;6.00;4.45;;;;;;;;;;5026538;28;20137;-78
2023/04/05 08:22:10;;;;;;;6.75;5.30;;;;;;;;;;5026611;28;20058;-77
2023/04/05 08:24:37;;;;;;;7.47;5.50;;;;;;;;;;5010340;28;20050;-76
2023/04/05 08:27:04;;;;;;;8.73;4.88;;;;;;;;;;5010329;28;20045;-77
2023/04/05 08:29:30;;;;;;;7.03;5.38;;;;;;;;;;5010686;28;20050;-76
2023/04/05 08:31:57;;;;;;;8.20;5.25;;;;;;;;;;5010003;28;20443;-76
2023/04/05 08:34:24;;;;;;;6.10;5.13;;;;;;;;;;4994283;28;20054;-76
2023/04/05 08:36:51;;;;;;;9.00;5.63;;;;;;;;;;5026732;28;20540;-76
2023/04/05 08:39:17;;;;;;;6.80;4.80;;;;;;;;;;4994142;28;20057;-76
2023/04/05 08:41:49;;;;;;;6.72;4.70;;;;;;;;;;4993293;28;20502;-76
2023/04/05 08:44:16;;;;;;;8.13;5.22;;;;;;;;;;4994031;28;20062;-76
2023/04/05 08:46:43;;;;;;;7.95;4.20;;;;;;;;;;4993667;28;20509;-76
2023/04/05 08:49:10;;;;;;;6.60;5.00;;;;;;;;;;4993623;28;20564;-76
2023/04/05 08:51:40;;;;;;;7.32;4.85;;;;;;;;;;4993183;28;20528;-76
2023/04/05 08:54:07;;;;;;;7.28;4.97;;;;;;;;;;4994814;28;20054;-76
2023/04/05 08:56:34;;;;;;;5.63;4.13;;;;;;;;;;5009577;28;20053;-76
2023/04/05 08:59:06;;;;;;;6.88;4.40;;;;;;;;;;5009831;28;20056;-73
2023/04/05 09:01:43;;;;;;;5.30;3.92;;;;;;;;;;5009320;28;20391;-72
2023/04/05 09:04:23;;;;;;;5.60;3.90;;;;;;;;;;4994665;28;20089;-72
2023/04/05 09:06:50;;;;;;;6.40;4.28;;;;;;;;;;4993648;28;20054;-72
2023/04/05 09:09:17;;;;;;;5.25;4.38;;;;;;;;;;4993361;28;20046;-72
2023/04/05 09:11:44;;;;;;;5.03;3.70;;;;;;;;;;5008988;28;20053;-73
2023/04/05 09:14:11;;;;;;;7.53;4.22;;;;;;;;;;5009706;28;20050;-72
2023/04/05 09:16:41;;;;;;;4.57;3.70;;;;;;;;;;4993211;28;20046;-71
2023/04/05 09:19:08;;;;;;;7.13;4.65;;;;;;;;;;4993502;28;20050;-74
2023/04/05 09:22:01;;;;;;;4.90;3.83;;;;;;;;;;4989899;28;20056;-73
2023/04/05 09:24:35;;;;;;;4.68;4.10;;;;;;;;;;5003548;28;20037;-74
2023/04/05 09:27:09;;;;;;;8.55;4.55;;;;;;;;;;4993562;28;20042;-74
2023/04/05 09:29:38;;;;;;;6.40;4.55;;;;;;;;;;5001466;28;20137;-73
2023/04/05 09:32:06;;;;;;;6.43;3.95;;;;;;;;;;4987082;28;20054;-73
2023/04/05 09:34:37;;;;;;;6.53;4.47;;;;;;;;;;4986156;28;20525;-73
2023/04/05 09:37:18;;;;;;;7.68;4.72;;;;;;;;;;5001189;28;20593;-72
2023/04/05 09:39:45;;;;;;;5.65;4.57;;;;;;;;;;4996713;28;20466;-73
2023/04/05 09:42:14;;;;;;;6.80;4.55;;;;;;;;;;5005693;28;20046;-73
2023/04/05 09:44:52;;;;;;;5.90;4.60;;;;;;;;;;4996438;28;20046;-73
2023/04/05 09:47:24;;;;;;;7.68;4.70;;;;;;;;;;4998021;28;20521;-73
2023/04/05 09:49:51;;;;;;;6.95;4.97;;;;;;;;;;4983425;28;20076;-73
2023/04/05 09:52:30;;;;;;;5.07;4.20;;;;;;;;;;4994838;28;20058;-73
2023/04/05 09:54:59;;;;;;;4.93;4.45;;;;;;;;;;5007735;28;20441;-72
2023/04/05 09:57:28;;;;;;;6.70;4.30;;;;;;;;;;4999199;28;20050;-73
2023/04/05 09:59:55;;;;;;;4.68;4.28;;;;;;;;;;5001508;28;20418;-73
2023/04/05 10:02:22;;;;;;;7.03;4.68;;;;;;;;;;5014486;28;20058;-73
2023/04/05 10:04:49;;;;;;;6.43;4.75;;;;;;;;;;5015174;28;20058;-73
2023/04/05 10:07:18;;;;;;;6.28;4.80;;;;;;;;;;5001805;28;20057;-72
2023/04/05 10:09:46;;;;;;;6.38;4.88;;;;;;;;;;4989606;28;20056;-74
2023/04/05 10:12:32;;;;;;;4.88;4.07;;;;;;;;;;5004833;28;20085;-73
2023/04/05 10:14:59;;;;;;;5.25;4.70;;;;;;;;;;4999225;28;20046;-73
2023/04/05 10:17:30;;;;;;;4.85;4.22;;;;;;;;;;5000933;28;20086;-72
2023/04/05 10:20:17;;;;;;;6.45;4.07;;;;;;;;;;5011329;28;20154;-77
2023/04/05 10:23:17;;;;;;;7.47;4.05;;;;;;;;;;5002258;28;20470;-80
2023/04/05 10:25:50;;;;;;;6.55;3.80;;;;;;;;;;5004324;28;20042;-81
2023/04/05 10:28:21;;;;;;;5.35;3.72;;;;;;;;;;5015331;28;20503;-80
2023/04/05 10:30:50;;;;;;;8.43;4.78;;;;;;;;;;5013498;28;20537;-81
2023/04/05 10:33:23;;;;;;;8.57;3.85;;;;;;;;;;5003585;28;20568;-83
2023/04/05 10:36:12;;;;;;;6.95;4.20;;;;;;;;;;5018199;28;20133;-82
2023/04/05 10:39:04;;;;;;;5.45;4.47;;;;;;;;;;5008679;28;20046;-83
2023/04/05 10:41:39;;;;;;;5.07;4.00;;;;;;;;;;4994356;28;20054;-82
2023/04/05 10:44:08;;;;;;;5.95;4.20;;;;;;;;;;5007226;28;20058;-82
2023/04/05 10:46:52;;;;;;;4.80;4.10;;;;;;;;;;5006147;28;20104;-81
2023/04/05 10:49:41;;;;;;;5.65;4.38;;;;;;;;;;5002058;28;20050;-78
2023/04/05 10:52:07;;;;;;;5.72;4.38;;;;;;;;;;5018746;28;20045;-79
2023/04/05 10:54:35;;;;;;;3.92;3.63;;;;;;;;;;5000732;28;20512;-79
2023/04/05 10:57:04;;;;;;;6.35;3.92;;;;;;;;;;5016391;28;20089;-79
2023/04/05 10:59:35;;;;;;;5.47;4.15;;;;;;;;;;5002839;28;20054;-76
2023/04/05 11:02:02;;;;;;;4.43;3.95;;;;;;;;;;4997185;28;20077;-78
2023/04/05 11:04:29;;;;;;;7.63;4.35;;;;;;;;;;4990139;28;20058;-79
2023/04/05 11:07:12;;;;;;;4.90;3.67;;;;;;;;;;5002035;28;20100;-79
2023/04/05 11:09:39;;;;;;;;;;;;;;;;;;5009365;28;20050;-79
2023/04/05 11:12:06;;;;;;;4.78;4.00;;;;;;;;;;5015909;28;19971;-78
2023/04/05 11:14:36;;;;;;;5.10;3.42;;;;;;;;;;5014755;28;20052;-77
2023/04/05 11:17:03;;;;;;;5.00;3.85;;;;;;;;;;5016950;28;20045;-80
2023/04/05 11:19:42;;;;;;;4.90;3.63;;;;;;;;;;4991902;28;20073;-78
2023/04/05 11:22:09;;;;;;;4.70;4.07;;;;;;;;;;5001605;28;20050;-79
2023/04/05 11:24:51;;;;;;;5.55;4.00;;;;;;;;;;5001857;28;20125;-80
2023/04/05 11:27:25;;;;;;;4.88;4.00;;;;;;;;;;5016820;28;20050;-79
2023/04/05 11:29:53;;;;;;;5.90;3.80;;;;;;;;;;5008685;28;20054;-79
2023/04/05 11:32:20;;;;;;;6.65;4.13;;;;;;;;;;5006376;28;20054;-78
2023/04/05 11:35:04;;;;;;;4.72;3.60;;;;;;;;;;4999369;28;20046;-78
2023/04/05 11:37:55;;;;;;;5.53;4.30;;;;;;;;;;5018086;28;20052;-82
2023/04/05 11:40:29;;;;;;;5.00;4.50;;;;;;;;;;5018585;28;20109;-79
2023/04/05 11:43:08;;;;;;;4.75;4.32;;;;;;;;;;4994190;28;20394;-78
2023/04/05 11:45:37;;;;;;;5.32;4.30;;;;;;;;;;4992034;28;20126;-79
2023/04/05 11:48:09;;;;;;;5.43;3.90;;;;;;;;;;4993664;28;20414;-79
2023/04/05 11:50:37;;;;;;;6.90;4.07;;;;;;;;;;5001055;28;20110;-79
2023/04/05 11:53:11;;;;;;;7.20;3.55;;;;;;;;;;4998939;28;20116;-80
2023/04/05 11:55:39;;;;;;;4.88;3.47;;;;;;;;;;5019491;28;20474;-79
2023/04/05 11:58:21;;;;;;;5.03;3.75;;;;;;;;;;5003977;28;20513;-79
2023/04/05 12:01:01;;;;;;;4.68;3.65;;;;;;;;;;4990032;28;20049;-80
2023/04/05 12:03:29;;;;;;;5.57;3.42;;;;;;;;;;5006731;28;20054;-79
2023/04/05 12:06:01;;;;;;;3.88;3.15;;;;;;;;;;4991850;28;20097;-76
2023/04/05 12:08:39;;;;;;;3.75;3.08;;;;;;;;;;5000129;28;20065;-80
2023/04/05 12:11:08;;;;;;;5.72;4.05;;;;;;;;;;5006132;28;20042;-76
2023/04/05 12:13:35;;;;;;;4.63;3.25;;;;;;;;;;4990602;28;20060;-77
2023/04/05 12:16:06;;;;;;;4.60;3.85;;;;;;;;;;5015343;28;20061;-78
2023/04/05 12:18:34;;;;;;;4.57;3.67;;;;;;;;;;5006509;28;20053;-77
2023/04/05 12:21:03;;;;;;;6.47;4.07;;;;;;;;;;5008959;28;20069;-76
2023/04/05 12:23:33;;;;;;;6.37;3.70;;;;;;;;;;4993942;28;20046;-77
2023/04/05 12:26:02;;;;;;;4.88;3.55;;;;;;;;;;4994104;28;20136;-77
2023/04/05 12:28:58;;;;;;;4.40;3.47;;;;;;;;;;4978169;28;20057;-77
2023/04/05 12:31:41;;;;;;;3.75;3.30;;;;;;;;;;5013458;28;20068;-80
2023/04/05 12:34:08;;;;;;;;;;;;;;;;;;4996551;28;20683;-75
2023/04/05 12:36:37;;;;;;;5.45;3.97;;;;;;;;;;5006745;28;20283;-77
2023/04/05 12:39:09;;;;;;;5.57;3.25;;;;;;;;;;4994456;28;20041;-77
2023/04/05 12:41:36;;;;;;;6.18;3.72;;;;;;;;;;4998085;28;20157;-78
2023/04/05 12:44:27;;;;;;;5.57;3.97;;;;;;;;;;5004499;28;20638;-77
2023/04/05 12:46:59;;;;;;;4.50;3.13;;;;;;;;;;4973861;28;20133;-77
2023/04/05 12:49:26;;;;;;;4.70;3.05;;;;;;;;;;4999462;28;20050;-78
2023/04/05 12:51:53;;;;;;;10.27;6.25;;;;;;;;;;5024355;28;20054;-78
2023/04/05 12:54:22;;;;;;;6.97;3.95;;;;;;;;;;5021354;28;20064;-77
2023/04/05 12:56:51;;;;;;;3.65;3.20;;;;;;;;;;4989917;28;20050;-77
2023/04/05 12:59:21;;;;;;;3.95;3.40;;;;;;;;;;5004535;28;20049;-82
2023/04/05 13:01:50;;;;;;;3.95;3.42;;;;;;;;;;5005355;28;20042;-77
2023/04/05 13:04:17;;;;;;;3.45;3.15;;;;;;;;;;4991743;28;20429;-80
2023/04/05 13:06:46;;;;;;;3.80;3.50;;;;;;;;;;4993067;28;20050;-77
2023/04/05 13:09:16;;;;;;;3.78;3.22;;;;;;;;;;4991581;28;20052;-77
2023/04/05 13:11:43;;;;;;;3.83;3.05;;;;;;;;;;4998842;28;20050;-81
2023/04/05 13:14:10;;;;;;;4.35;3.40;;;;;;;;;;5000585;28;20136;-77
2023/04/05 13:16:37;;;;;;;4.25;3.25;;;;;;;;;;5020268;28;20054;-80
2023/04/05 13:19:04;;;;;;;4.10;3.30;;;;;;;;;;5000151;28;20512;-77
2023/04/05 13:21:31;;;;;;;3.90;3.40;;;;;;;;;;5001391;28;20122;-82
2023/04/05 13:23:58;;;;;;;3.80;3.17;;;;;;;;;;4990966;28;20077;-80
2023/04/05 13:26:26;;;;;;;5.68;3.20;;;;;;;;;;4994568;28;20054;-79
2023/04/05 13:28:53;;;;;;;4.25;3.35;;;;;;;;;;5014695;28;20450;-85
2023/04/05 13:31:22;;;;;;;6.57;3.00;;;;;;;;;;5001558;28;20470;-84
2023/04/05 13:33:49;;;;;;;4.38;3.30;;;;;;;;;;5019434;28;20498;-77
2023/04/05 13:36:16;;;;;;;6.20;3.60;;;;;;;;;;5006134;28;20062;-77
2023/04/05 13:38:43;;;;;;;3.97;2.95;;;;;;;;;;4998449;28;20513;-78
2023/04/05 13:41:10;;;;;;;3.80;3.17;;;;;;;;;;5004484;28;20433;-80
2023/04/05 13:43:37;;;;;;;7.05;3.85;;;;;;;;;;5016386;28;20469;-76
2023/04/05 13:46:04;;;;;;;3.72;3.30;;;;;;;;;;5005090;28;20065;-80
2023/04/05 13:48:31;;;;;;;3.45;3.15;;;;;;;;;;4998722;28;20049;-80
2023/04/05 13:50:59;;;;;;;3.63;3.30;;;;;;;;;;4999944;28;20049;-80
2023/04/05 13:53:26;;;;;;;3.42;2.97;;;;;;;;;;5000179;28;20080;-79
2023/04/05 13:55:54;;;;;;;6.40;3.67;;;;;;;;;;5016935;28;20060;-81
2023/04/05 13:58:21;;;;;;;5.78;3.45;;;;;;;;;;4998066;28;20530;-79
2023/04/05 14:00:49;;;;;;;5.00;3.65;;;;;;;;;;4990681;28;20053;-80
2023/04/05 14:03:16;;;;;;;3.70;3.40;;;;;;;;;;4998196;28;20050;-79
2023/04/05 14:05:43;;;;;;;4.47;3.08;;;;;;;;;;5020028;28;20403;-79
2023/04/05 14:08:14;;;;;;;4.78;3.83;;;;;;;;;;5005692;28;20120;-81
2023/04/05 14:10:41;;;;;;;5.78;3.13;;;;;;;;;;4999310;28;20334;-76
2023/04/05 14:13:10;;;;;;;3.88;3.42;;;;;;;;;;5018364;28;20544;-76
2023/04/05 14:15:37;;;;;;;4.60;3.40;;;;;;;;;;5005969;28;20073;-76
2023/04/05 14:18:05;;;;;;;3.72;3.20;;;;;;;;;;5019459;28;20062;-77
2023/04/05 14:20:32;;;;;;;4.35;3.15;;;;;;;;;;4994289;28;20058;-75
2023/04/05 14:23:00;;;;;;;3.50;3.20;;;;;;;;;;5015697;28;20513;-76
2023/04/05 14:25:27;;;;;;;6.15;3.10;;;;;;;;;;5002239;28;20139;-75
2023/04/05 14:27:54;;;;;;;4.60;3.50;;;;;;;;;;5002311;28;20068;-75
2023/04/05 14:30:21;;;;;;;5.05;3.05;;;;;;;;;;4997946;28;20510;-75
2023/04/05 14:32:48;;;;;;;4.38;3.40;;;;;;;;;;5003357;28;20100;-75
2023/04/05 14:35:15;;;;;;;4.15;2.92;;;;;;;;;;5018315;28;20058;-75
2023/04/05 14:37:42;;;;;;;4.82;3.50;;;;;;;;;;5005680;28;20057;-75
2023/04/05 14:40:09;;;;;;;4.88;3.03;;;;;;;;;;5002396;28;20049;-75
2023/04/05 14:42:36;;;;;;;3.20;2.70;;;;;;;;;;5001091;28;20060;-76
2023/04/05 14:45:15;;;;;;;5.00;3.15;;;;;;;;;;5006721;28;20058;-75
2023/04/05 14:47:42;;;;;;;3.42;2.70;;;;;;;;;;5005434;28;20057;-76
2023/04/05 14:50:09;;;;;;;6.55;3.08;;;;;;;;;;5001874;28;20125;-75
2023/04/05 14:52:36;;;;;;;3.28;2.88;;;;;;;;;;5018609;28;20042;-77
2023/04/05 14:55:03;;;;;;;3.78;3.05;;;;;;;;;;5001396;28;20046;-76